createdAt,value
2017-04-18T00:00:20.011Z,4.58
2017-04-18T00:01:20.450Z,5.05
2017-04-18T00:02:20.529Z,5.00
2017-04-18T00:03:21.303Z,6.13
2017-04-18T00:04:21.379Z,5.28
2017-04-18T00:05:21.399Z,5.48
2017-04-18T00:06:21.796Z,5.28
2017-04-18T00:07:21.853Z,5.67
2017-04-18T00:08:21.922Z,5.28
2017-04-18T00:09:22.787Z,5.13
2017-04-18T00:10:23.019Z,5.10
2017-04-18T00:11:23.715Z,5.48
2017-04-18T00:12:23.990Z,4.88
2017-04-18T00:13:24.036Z,6.17
2017-04-18T00:14:24.078Z,5.70
2017-04-18T00:15:24.194Z,5.08
2017-04-18T00:16:24.633Z,4.75
2017-04-18T00:17:24.648Z,5.92
2017-04-18T00:18:28.415Z,6.00
2017-04-18T00:19:28.485Z,6.70
2017-04-18T00:20:28.550Z,6.28
2017-04-18T00:21:28.902Z,7.50
2017-04-18T00:22:28.975Z,7.35
2017-04-18T00:23:29.130Z,6.60
2017-04-18T00:24:29.207Z,6.63
2017-04-18T00:25:29.282Z,6.97
2017-04-18T00:26:29.951Z,6.17
2017-04-18T00:27:31.233Z,7.32
2017-04-18T00:28:32.533Z,6.78
2017-04-18T00:29:33.482Z,7.03
2017-04-18T00:30:33.678Z,8.15
2017-04-18T00:31:34.127Z,7.43
2017-04-18T00:32:34.349Z,7.35
2017-04-18T00:33:34.522Z,7.72
2017-04-18T00:34:34.738Z,6.47
2017-04-18T00:35:34.911Z,7.35
2017-04-18T00:36:35.332Z,8.12
2017-04-18T00:37:35.425Z,8.22
2017-04-18T00:38:35.480Z,7.80
2017-04-18T00:39:35.655Z,8.00
2017-04-18T00:40:35.691Z,9.70
2017-04-18T00:41:36.121Z,8.23
2017-04-18T00:42:36.236Z,8.35
2017-04-18T00:43:36.319Z,8.50
2017-04-18T00:44:36.394Z,8.45
2017-04-18T00:45:36.471Z,8.98
2017-04-18T00:46:37.033Z,9.60
2017-04-18T00:47:37.137Z,9.02
2017-04-18T00:48:37.397Z,8.88
2017-04-18T00:49:37.494Z,9.73
2017-04-18T00:50:37.552Z,9.57
2017-04-18T00:51:38.077Z,8.37
2017-04-18T00:52:38.125Z,8.93
2017-04-18T00:53:38.315Z,9.45
2017-04-18T00:54:38.423Z,9.82
2017-04-18T00:55:38.580Z,10.82
2017-04-18T00:56:39.158Z,11.17
2017-04-18T00:57:39.288Z,11.20
2017-04-18T00:58:39.410Z,10.18
2017-04-18T00:59:39.547Z,13.35
2017-04-18T01:00:39.686Z,13.55
2017-04-18T01:01:40.097Z,12.60
2017-04-18T01:02:40.933Z,11.90
2017-04-18T01:03:41.071Z,12.85
2017-04-18T01:04:41.131Z,12.13
2017-04-18T01:05:41.262Z,13.70
2017-04-18T01:06:41.639Z,13.00
2017-04-18T01:07:41.770Z,13.22
2017-04-18T01:08:41.853Z,14.15
2017-04-18T01:09:41.956Z,12.03
2017-04-18T01:10:42.152Z,14.50
2017-04-18T01:11:43.840Z,13.60
2017-04-18T01:12:43.954Z,12.45
2017-04-18T01:13:44.041Z,16.08
2017-04-18T01:14:44.234Z,13.93
2017-04-18T01:15:44.332Z,14.15
2017-04-18T01:16:44.539Z,11.78
2017-04-18T01:17:44.756Z,14.67
2017-04-18T01:18:45.659Z,15.03
2017-04-18T01:19:45.806Z,14.37
2017-04-18T01:20:46.038Z,13.95
2017-04-18T01:21:46.158Z,13.68
2017-04-18T01:22:46.235Z,14.73
2017-04-18T01:23:46.419Z,12.45
2017-04-18T01:24:46.497Z,14.20
2017-04-18T01:25:46.604Z,13.57
2017-04-18T01:26:46.667Z,14.52
2017-04-18T01:27:46.752Z,15.55
2017-04-18T01:28:46.947Z,13.90
2017-04-18T01:29:47.049Z,14.10
2017-04-18T01:30:47.127Z,13.52
2017-04-18T01:31:47.371Z,13.28
2017-04-18T01:32:47.468Z,15.28
2017-04-18T01:33:47.628Z,13.40
2017-04-18T01:34:47.754Z,12.50
2017-04-18T01:35:47.917Z,15.93
2017-04-18T01:36:48.309Z,14.18
2017-04-18T01:37:48.359Z,13.35
2017-04-18T01:38:48.403Z,12.35
2017-04-18T01:39:53.332Z,12.63
2017-04-18T01:40:59.386Z,11.67
2017-04-18T01:44:06.418Z,13.25
2017-04-18T01:45:11.850Z,10.53
2017-04-18T01:46:43.296Z,13.40
2017-04-18T01:47:43.463Z,12.27
2017-04-18T01:48:43.633Z,12.77
2017-04-18T01:49:43.742Z,12.48
2017-04-18T01:50:43.805Z,12.45
2017-04-18T01:51:43.916Z,12.75
2017-04-18T01:52:44.656Z,12.75
2017-04-18T01:53:44.743Z,11.45
2017-04-18T01:54:44.870Z,10.77
2017-04-18T01:55:44.961Z,11.73
2017-04-18T01:56:46.507Z,8.85
2017-04-18T01:57:46.583Z,9.57
2017-04-18T01:58:46.764Z,11.23
2017-04-18T01:59:47.504Z,11.15
2017-04-18T02:00:47.572Z,9.30
2017-04-18T02:01:47.708Z,7.98
2017-04-18T02:02:47.712Z,8.42
2017-04-18T02:03:47.826Z,9.73
2017-04-18T02:04:47.906Z,8.57
2017-04-18T02:05:47.981Z,7.82
2017-04-18T02:06:48.152Z,8.95
2017-04-18T02:07:48.324Z,7.50
2017-04-18T02:08:48.395Z,8.10
2017-04-18T02:09:48.470Z,7.25
2017-04-18T02:10:48.727Z,7.38
2017-04-18T02:11:48.765Z,8.02
2017-04-18T02:12:48.999Z,7.63
2017-04-18T02:13:49.054Z,7.37
2017-04-18T02:14:49.132Z,6.92
2017-04-18T02:15:49.447Z,8.87
2017-04-18T02:16:49.481Z,7.77
2017-04-18T02:17:49.689Z,7.48
2017-04-18T02:18:49.905Z,7.65
2017-04-18T02:19:50.103Z,7.32
2017-04-18T02:20:50.379Z,6.98
2017-04-18T02:21:50.478Z,6.68
2017-04-18T02:22:51.419Z,8.20
2017-04-18T02:23:52.239Z,6.40
2017-04-18T02:24:52.315Z,9.45
2017-04-18T02:25:52.362Z,7.82
2017-04-18T02:26:52.428Z,8.37
2017-04-18T02:27:52.491Z,7.30
2017-04-18T02:28:52.613Z,8.07
2017-04-18T02:29:52.662Z,8.30
2017-04-18T02:30:52.805Z,9.48
2017-04-18T02:31:52.845Z,8.50
2017-04-18T02:32:53.622Z,8.72
2017-04-18T02:33:53.755Z,10.05
2017-04-18T02:34:53.790Z,9.82
2017-04-18T02:35:54.001Z,9.83
2017-04-18T02:36:54.054Z,9.58
2017-04-18T02:37:54.101Z,10.62
2017-04-18T02:38:54.880Z,10.85
2017-04-18T02:39:54.934Z,11.87
2017-04-18T02:40:54.972Z,9.88
2017-04-18T02:41:55.359Z,10.33
2017-04-18T02:42:55.503Z,9.72
2017-04-18T02:43:55.575Z,10.40
2017-04-18T02:44:55.612Z,11.50
2017-04-18T02:45:55.715Z,11.70
2017-04-18T02:46:55.807Z,11.65
2017-04-18T02:47:55.857Z,11.00
2017-04-18T02:48:55.940Z,10.83
2017-04-18T02:49:56.022Z,12.05
2017-04-18T02:50:57.451Z,11.65
2017-04-18T02:51:57.530Z,11.80
2017-04-18T02:52:57.683Z,10.73
2017-04-18T02:53:57.677Z,10.00
2017-04-18T02:54:58.053Z,12.23
2017-04-18T02:55:58.151Z,11.62
2017-04-18T02:56:58.202Z,12.98
2017-04-18T02:57:58.371Z,12.20
2017-04-18T02:58:58.479Z,11.02
2017-04-18T02:59:58.514Z,11.67
2017-04-18T03:00:58.537Z,12.25
2017-04-18T03:01:58.551Z,11.38
2017-04-18T03:02:58.559Z,12.62
2017-04-18T03:03:58.633Z,14.53
2017-04-18T03:04:58.726Z,14.85
2017-04-18T03:05:58.933Z,12.30
2017-04-18T03:06:58.962Z,15.68
2017-04-18T03:08:05.663Z,13.57
2017-04-18T03:09:05.919Z,14.93
2017-04-18T03:10:06.049Z,14.20
2017-04-18T03:11:06.086Z,14.93
2017-04-18T03:12:06.112Z,13.68
2017-04-18T03:13:06.215Z,14.78
2017-04-18T03:14:06.235Z,16.33
2017-04-18T03:15:06.314Z,13.75
2017-04-18T03:16:06.518Z,15.12
2017-04-18T03:17:06.605Z,13.70
2017-04-18T03:18:06.826Z,15.62
2017-04-18T03:19:06.957Z,14.13
2017-04-18T03:20:07.119Z,16.47
2017-04-18T03:21:13.616Z,14.80
2017-04-18T03:22:13.666Z,13.85
2017-04-18T03:23:13.739Z,12.98
2017-04-18T03:24:13.823Z,16.50
2017-04-18T03:25:13.960Z,13.10
2017-04-18T03:26:14.058Z,13.40
2017-04-18T03:27:14.155Z,14.70
2017-04-18T03:28:14.214Z,14.45
2017-04-18T03:29:14.279Z,14.77
2017-04-18T03:30:14.389Z,16.25
2017-04-18T03:31:14.545Z,16.27
2017-04-18T03:32:14.642Z,14.67
2017-04-18T03:33:14.686Z,13.92
2017-04-18T03:34:14.710Z,14.98
2017-04-18T03:35:14.857Z,14.98
2017-04-18T03:36:14.905Z,14.83
2017-04-18T03:37:14.940Z,14.03
2017-04-18T03:38:14.955Z,14.10
2017-04-18T03:39:14.986Z,15.03
2017-04-18T03:40:15.124Z,14.30
2017-04-18T03:41:15.169Z,15.57
2017-04-18T03:42:15.230Z,15.83
2017-04-18T03:43:15.289Z,16.12
2017-04-18T03:44:15.337Z,14.53
2017-04-18T03:45:15.460Z,15.07
2017-04-18T03:46:15.514Z,15.45
2017-04-18T03:47:15.547Z,14.73
2017-04-18T03:48:15.799Z,14.25
2017-04-18T03:49:15.873Z,12.95
2017-04-18T03:50:15.919Z,13.18
2017-04-18T03:51:16.498Z,12.23
2017-04-18T03:52:16.535Z,13.58
2017-04-18T03:53:16.637Z,15.08
2017-04-18T03:54:16.732Z,13.15
2017-04-18T03:55:16.758Z,12.88
2017-04-18T03:56:16.848Z,13.70
2017-04-18T03:57:16.924Z,12.77
2017-04-18T03:58:17.084Z,12.97
2017-04-18T03:59:17.150Z,12.98
2017-04-18T04:00:17.227Z,13.88
2017-04-18T04:01:17.263Z,13.20
2017-04-18T04:02:17.290Z,13.25
2017-04-18T04:03:17.417Z,14.00
2017-04-18T04:04:17.534Z,14.30
2017-04-18T04:05:17.583Z,13.03
2017-04-18T04:06:17.721Z,12.43
2017-04-18T04:07:18.573Z,12.72
2017-04-18T04:08:18.659Z,13.50
2017-04-18T04:09:18.727Z,13.77
2017-04-18T04:10:18.778Z,11.55
2017-04-18T04:11:18.835Z,12.22
2017-04-18T04:12:18.887Z,10.97
2017-04-18T04:13:18.962Z,11.82
2017-04-18T04:14:19.088Z,13.00
2017-04-18T04:15:19.191Z,10.72
2017-04-18T04:16:19.919Z,11.15
2017-04-18T04:17:19.929Z,12.48
2017-04-18T04:18:19.971Z,11.05
2017-04-18T04:19:20.012Z,14.42
2017-04-18T04:20:20.150Z,12.05
2017-04-18T04:21:20.467Z,11.12
2017-04-18T04:22:20.612Z,12.07
2017-04-18T04:23:20.678Z,11.65
2017-04-18T04:24:20.954Z,11.97
2017-04-18T04:25:21.003Z,12.98
2017-04-18T04:26:21.800Z,11.93
2017-04-18T04:27:21.822Z,8.58
2017-04-18T04:28:22.028Z,10.35
2017-04-18T04:29:22.415Z,10.78
2017-04-18T04:30:23.842Z,10.90
2017-04-18T04:31:23.921Z,10.10
2017-04-18T04:32:24.790Z,10.83
2017-04-18T04:33:24.972Z,10.08
2017-04-18T04:34:25.214Z,10.50
2017-04-18T04:35:25.925Z,11.42
2017-04-18T04:36:26.534Z,8.93
2017-04-18T04:37:26.598Z,9.78
2017-04-18T04:38:26.733Z,9.02
2017-04-18T04:39:26.880Z,8.67
2017-04-18T04:40:26.952Z,9.75
2017-04-18T04:41:27.007Z,10.25
2017-04-18T04:42:27.126Z,9.55
2017-04-18T04:43:27.270Z,9.13
2017-04-18T04:44:27.363Z,8.53
2017-04-18T04:45:27.498Z,9.83
2017-04-18T04:46:27.700Z,8.27
2017-04-18T04:47:27.766Z,9.55
2017-04-18T04:48:27.865Z,9.60
2017-04-18T04:49:27.987Z,6.73
2017-04-18T04:50:27.967Z,7.75
2017-04-18T04:51:28.015Z,8.43
2017-04-18T04:52:28.474Z,8.20
2017-04-18T04:53:28.528Z,7.83
2017-04-18T04:54:28.611Z,8.42
2017-04-18T04:55:28.688Z,8.02
2017-04-18T04:56:28.728Z,7.03
2017-04-18T04:57:28.803Z,6.95
2017-04-18T04:58:29.235Z,7.52
2017-04-18T04:59:29.241Z,7.40
2017-04-18T05:00:29.271Z,6.78
2017-04-18T05:01:29.477Z,6.08
2017-04-18T05:02:29.538Z,6.52
2017-04-18T05:03:30.688Z,5.90
2017-04-18T05:04:30.785Z,5.98
2017-04-18T05:05:31.035Z,7.05
2017-04-18T05:06:31.119Z,5.87
2017-04-18T05:07:31.901Z,7.02
2017-04-18T05:08:33.347Z,5.22
2017-04-18T05:09:33.412Z,6.50
2017-04-18T05:10:33.435Z,5.58
2017-04-18T05:11:33.487Z,7.23
2017-04-18T05:12:33.595Z,6.22
2017-04-18T05:13:34.583Z,5.47
2017-04-18T05:14:35.263Z,6.30
2017-04-18T05:15:35.467Z,6.27
2017-04-18T05:16:35.634Z,6.37
2017-04-18T05:17:35.696Z,6.72
2017-04-18T05:18:36.219Z,6.28
2017-04-18T05:19:36.804Z,5.52
2017-04-18T05:20:36.935Z,5.47
2017-04-18T05:21:36.928Z,5.52
2017-04-18T05:22:37.135Z,5.30
2017-04-18T05:23:37.286Z,6.42
2017-04-18T05:24:37.350Z,5.35
2017-04-18T05:25:37.426Z,6.35
2017-04-18T05:26:37.548Z,7.83
2017-04-18T05:27:38.121Z,6.15
2017-04-18T05:28:38.628Z,6.53
2017-04-18T05:29:38.669Z,6.95
2017-04-18T05:30:38.715Z,6.00
2017-04-18T05:31:38.799Z,7.72
2017-04-18T05:32:38.892Z,5.70
2017-04-18T05:33:39.344Z,6.05
2017-04-18T05:34:39.502Z,5.87
2017-04-18T05:35:40.042Z,5.65
2017-04-18T05:36:40.259Z,6.98
2017-04-18T05:37:40.453Z,6.25
2017-04-18T05:38:40.506Z,6.35
2017-04-18T05:39:40.549Z,5.07
2017-04-18T05:40:41.411Z,6.20
2017-04-18T05:41:41.481Z,6.35
2017-04-18T05:42:41.535Z,6.60
2017-04-18T05:43:41.667Z,5.55
2017-04-18T05:44:41.723Z,6.08
2017-04-18T05:45:41.766Z,6.23
2017-04-18T05:46:41.957Z,6.43
2017-04-18T05:47:42.136Z,6.52
2017-04-18T05:48:43.268Z,5.73
2017-04-18T05:49:43.388Z,6.28
2017-04-18T05:50:43.402Z,4.62
2017-04-18T05:51:44.329Z,5.25
2017-04-18T05:52:44.422Z,6.42
2017-04-18T05:53:44.494Z,6.58
2017-04-18T05:54:44.580Z,5.77
2017-04-18T05:55:44.625Z,6.80
2017-04-18T05:56:44.634Z,6.02
2017-04-18T05:57:44.704Z,5.08
2017-04-18T05:58:45.295Z,4.98
2017-04-18T05:59:45.426Z,5.40
2017-04-18T06:00:45.509Z,5.37
2017-04-18T06:01:45.619Z,5.47
2017-04-18T06:02:45.710Z,6.38
2017-04-18T06:03:46.086Z,6.15
2017-04-18T06:04:46.231Z,4.62
2017-04-18T06:05:46.255Z,5.52
2017-04-18T06:06:46.326Z,4.57
2017-04-18T06:07:47.650Z,4.02
2017-04-18T06:08:48.086Z,5.18
2017-04-18T06:09:48.935Z,5.48
2017-04-18T06:10:49.021Z,5.23
2017-04-18T06:11:49.403Z,5.33
2017-04-18T06:12:49.509Z,5.05
2017-04-18T06:13:50.162Z,4.50
2017-04-18T06:14:50.991Z,4.58
2017-04-18T06:15:51.058Z,4.60
2017-04-18T06:16:51.228Z,3.80
2017-04-18T06:17:51.409Z,5.32
2017-04-18T06:18:52.239Z,4.17
2017-04-18T06:19:52.455Z,5.05
2017-04-18T06:20:53.061Z,4.92
2017-04-18T06:21:53.298Z,4.98
2017-04-18T06:22:53.498Z,4.20
2017-04-18T06:23:53.650Z,6.27
2017-04-18T06:24:53.725Z,4.62
2017-04-18T06:25:54.174Z,3.67
2017-04-18T06:26:54.286Z,4.68
2017-04-18T06:27:54.448Z,4.60
2017-04-18T06:28:54.550Z,4.13
2017-04-18T06:29:54.705Z,4.93
2017-04-18T06:30:54.903Z,4.70
2017-04-18T06:31:55.410Z,4.97
2017-04-18T06:32:55.487Z,3.95
2017-04-18T06:33:55.685Z,4.12
2017-04-18T06:34:55.799Z,4.35
2017-04-18T06:35:55.802Z,4.07
2017-04-18T06:36:55.961Z,3.53
2017-04-18T06:37:56.104Z,3.98
2017-04-18T06:38:56.281Z,4.05
2017-04-18T06:39:56.363Z,3.83
2017-04-18T06:40:56.627Z,4.75
2017-04-18T06:41:56.801Z,3.75
2017-04-18T06:42:57.689Z,3.40
2017-04-18T06:43:57.942Z,3.83
2017-04-18T06:44:58.035Z,3.75
2017-04-18T06:45:58.107Z,3.62
2017-04-18T06:46:58.138Z,3.67
2017-04-18T06:47:59.145Z,3.03
2017-04-18T06:48:59.420Z,3.47
2017-04-18T06:50:00.168Z,3.38
2017-04-18T06:51:00.348Z,3.60
2017-04-18T06:52:00.465Z,2.73
2017-04-18T06:53:00.465Z,3.23
2017-04-18T06:54:00.529Z,3.37
2017-04-18T06:55:01.125Z,3.18
2017-04-18T06:56:01.194Z,3.37
2017-04-18T06:57:01.270Z,3.38
2017-04-18T06:58:01.345Z,2.50
2017-04-18T06:59:01.510Z,2.73
2017-04-18T07:00:01.629Z,2.83
2017-04-18T07:01:01.735Z,2.45
2017-04-18T07:02:01.810Z,3.07
2017-04-18T07:03:14.070Z,3.27
2017-04-18T07:04:14.974Z,4.23
2017-04-18T07:05:15.091Z,3.52
2017-04-18T07:06:15.233Z,3.32
2017-04-18T07:07:15.271Z,2.18
2017-04-18T07:08:15.438Z,2.63
2017-04-18T07:09:15.622Z,2.57
2017-04-18T07:10:15.691Z,2.68
2017-04-18T07:11:15.761Z,2.42
2017-04-18T07:12:15.907Z,2.52
2017-04-18T07:13:15.945Z,2.73
2017-04-18T07:14:18.347Z,2.13
2017-04-18T07:15:18.453Z,2.45
2017-04-18T07:16:18.534Z,2.13
2017-04-18T07:17:18.594Z,1.98
2017-04-18T07:18:18.641Z,2.08
2017-04-18T07:19:19.173Z,2.13
2017-04-18T07:20:19.228Z,2.63
2017-04-18T07:21:19.305Z,2.00
2017-04-18T07:22:19.394Z,2.48
2017-04-18T07:23:19.510Z,1.95
2017-04-18T07:24:20.013Z,2.12
2017-04-18T07:25:20.851Z,2.18
2017-04-18T07:26:21.047Z,2.70
2017-04-18T07:27:21.202Z,2.45
2017-04-18T07:28:21.318Z,2.75
2017-04-18T07:29:22.148Z,2.37
2017-04-18T07:30:22.274Z,2.33
2017-04-18T07:31:22.391Z,2.65
2017-04-18T07:32:22.506Z,2.77
2017-04-18T07:33:22.553Z,2.35
2017-04-18T07:34:23.042Z,1.78
2017-04-18T07:35:23.795Z,2.65
2017-04-18T07:36:23.828Z,2.80
2017-04-18T07:37:23.893Z,2.02
2017-04-18T07:38:24.493Z,1.82
2017-04-18T07:39:25.950Z,2.02
2017-04-18T07:40:26.031Z,2.00
2017-04-18T07:41:26.121Z,2.20
2017-04-18T07:42:26.308Z,2.02
2017-04-18T07:43:27.837Z,2.12
2017-04-18T07:44:28.356Z,1.97
2017-04-18T07:45:28.444Z,2.03
2017-04-18T07:46:28.796Z,1.92
2017-04-18T07:47:28.932Z,2.47
2017-04-18T07:48:29.039Z,2.00
2017-04-18T07:49:29.772Z,3.23
2017-04-18T07:50:30.030Z,2.15
2017-04-18T07:51:30.128Z,2.67
2017-04-18T07:52:30.233Z,2.27
2017-04-18T07:53:30.446Z,2.15
2017-04-18T07:54:30.913Z,2.27
2017-04-18T07:55:31.666Z,2.15
2017-04-18T07:56:31.962Z,2.17
2017-04-18T07:57:32.604Z,2.15
2017-04-18T07:58:32.692Z,2.08
2017-04-18T07:59:32.844Z,2.12
2017-04-18T08:00:32.961Z,2.70
2017-04-18T08:01:33.216Z,2.03
2017-04-18T08:02:33.875Z,3.00
2017-04-18T08:03:34.105Z,2.18
2017-04-18T08:04:34.616Z,2.45
2017-04-18T08:05:34.724Z,1.80
2017-04-18T08:06:34.872Z,2.17
2017-04-18T08:07:34.865Z,2.10
2017-04-18T08:08:35.083Z,2.37
2017-04-18T08:09:35.564Z,3.27
2017-04-18T08:10:35.665Z,2.12
2017-04-18T08:11:36.618Z,1.80
2017-04-18T08:12:36.693Z,2.13
2017-04-18T08:13:44.063Z,2.23
2017-04-18T08:14:44.146Z,2.43
2017-04-18T08:15:44.191Z,2.08
2017-04-18T08:16:44.358Z,2.22
2017-04-18T08:17:44.562Z,1.87
2017-04-18T08:18:45.333Z,2.13
2017-04-18T08:19:46.718Z,2.42
2017-04-18T08:20:46.774Z,2.10
2017-04-18T08:21:46.821Z,2.30
2017-04-18T08:22:46.960Z,1.72
2017-04-18T08:23:47.070Z,2.58
2017-04-18T08:24:47.193Z,2.55
2017-04-18T08:25:47.470Z,2.55
2017-04-18T08:26:47.514Z,1.88
2017-04-18T08:27:47.647Z,2.38
2017-04-18T08:28:48.484Z,2.03
2017-04-18T08:29:49.176Z,2.30
2017-04-18T08:30:49.471Z,2.40
2017-04-18T08:31:50.257Z,2.60
2017-04-18T08:32:50.357Z,2.13
2017-04-18T08:33:50.403Z,2.72
2017-04-18T08:34:50.545Z,2.40
2017-04-18T08:35:51.346Z,3.17
2017-04-18T08:36:51.430Z,2.72
2017-04-18T08:37:51.565Z,3.10
2017-04-18T08:38:51.594Z,3.52
2017-04-18T08:39:51.668Z,2.80
2017-04-18T08:40:52.010Z,2.10
2017-04-18T08:41:52.088Z,2.95
2017-04-18T08:42:52.283Z,2.28
2017-04-18T08:43:52.382Z,3.22
2017-04-18T08:44:52.435Z,2.77
2017-04-18T08:45:52.502Z,2.67
2017-04-18T08:46:52.750Z,2.82
2017-04-18T08:47:52.877Z,2.98
2017-04-18T08:48:53.850Z,2.85
2017-04-18T08:49:53.922Z,2.78
2017-04-18T08:50:54.186Z,2.57
2017-04-18T08:51:54.217Z,2.57
2017-04-18T08:52:54.253Z,2.07
2017-04-18T08:53:55.085Z,2.85
2017-04-18T08:54:55.115Z,2.98
2017-04-18T08:55:55.235Z,2.20
2017-04-18T08:56:55.347Z,1.72
2017-04-18T08:57:56.197Z,2.02
2017-04-18T08:58:56.310Z,1.77
2017-04-18T08:59:56.650Z,2.43
2017-04-18T09:00:57.254Z,3.70
2017-04-18T09:01:57.395Z,2.52
2017-04-18T09:02:57.523Z,2.73
2017-04-18T09:03:57.718Z,2.30
2017-04-18T09:04:57.746Z,2.92
2017-04-18T09:05:57.802Z,2.73
2017-04-18T09:06:57.857Z,2.82
2017-04-18T09:07:57.922Z,2.50
2017-04-18T09:08:58.017Z,2.25
2017-04-18T09:09:58.150Z,2.73
2017-04-18T09:10:59.020Z,2.58
2017-04-18T09:11:59.770Z,2.52
2017-04-18T09:12:59.831Z,2.43
2017-04-18T09:14:00.456Z,2.72
2017-04-18T09:15:00.489Z,3.15
2017-04-18T09:16:00.651Z,2.43
2017-04-18T09:17:00.796Z,2.82
2017-04-18T09:18:00.796Z,2.70
2017-04-18T09:19:00.817Z,2.53
2017-04-18T09:20:00.914Z,1.38
2017-04-18T09:21:01.022Z,2.85
2017-04-18T09:22:01.106Z,2.12
2017-04-18T09:23:01.109Z,1.80
2017-04-18T09:24:01.219Z,2.57
2017-04-18T09:25:01.283Z,2.40
2017-04-18T09:26:01.307Z,1.92
2017-04-18T09:27:01.329Z,2.78
2017-04-18T09:28:01.322Z,2.10
2017-04-18T09:29:01.411Z,1.87
2017-04-18T09:30:01.456Z,2.25
2017-04-18T09:31:01.569Z,2.52
2017-04-18T09:32:02.379Z,2.85
2017-04-18T09:33:02.417Z,2.42
2017-04-18T09:34:02.540Z,2.58
2017-04-18T09:35:02.635Z,2.38
2017-04-18T09:36:02.621Z,2.60
2017-04-18T09:37:02.764Z,2.55
2017-04-18T09:38:02.919Z,2.68
2017-04-18T09:39:03.042Z,2.80
2017-04-18T09:40:03.311Z,2.90
2017-04-18T09:41:03.325Z,2.83
2017-04-18T09:42:03.357Z,3.13
2017-04-18T09:43:03.430Z,2.65
2017-04-18T09:44:10.371Z,2.93
2017-04-18T09:45:10.374Z,2.25
2017-04-18T09:46:10.956Z,2.63
2017-04-18T09:47:10.992Z,2.93
2017-04-18T09:48:11.065Z,3.13
2017-04-18T09:49:11.243Z,3.07
2017-04-18T09:50:11.296Z,1.75
2017-04-18T09:51:11.333Z,3.78
2017-04-18T09:52:11.530Z,2.75
2017-04-18T09:53:11.627Z,2.83
2017-04-18T09:54:11.632Z,3.15
2017-04-18T09:55:11.679Z,2.70
2017-04-18T09:56:11.751Z,2.05
2017-04-18T09:57:11.810Z,2.45
2017-04-18T09:58:11.906Z,1.95
2017-04-18T09:59:11.898Z,2.37
2017-04-18T10:00:12.321Z,2.08
2017-04-18T10:01:12.398Z,3.20
2017-04-18T10:02:13.150Z,2.15
2017-04-18T10:03:13.196Z,2.33
2017-04-18T10:04:13.344Z,2.55
2017-04-18T10:05:13.572Z,2.45
2017-04-18T10:06:13.780Z,1.88
2017-04-18T10:07:13.825Z,2.02
2017-04-18T10:08:13.871Z,2.22
2017-04-18T10:09:13.923Z,3.00
2017-04-18T10:10:13.931Z,2.40
2017-04-18T10:11:14.038Z,2.20
2017-04-18T10:12:14.160Z,3.10
2017-04-18T10:13:14.201Z,3.17
2017-04-18T10:14:20.437Z,2.10
2017-04-18T10:15:20.536Z,2.40
2017-04-18T10:16:20.646Z,2.75
2017-04-18T10:17:20.671Z,2.27
2017-04-18T10:18:20.774Z,1.98
2017-04-18T10:19:20.868Z,2.57
2017-04-18T10:20:20.925Z,2.03
2017-04-18T10:21:21.706Z,2.17
2017-04-18T10:22:21.788Z,2.63
2017-04-18T10:23:21.902Z,2.30
2017-04-18T10:24:22.071Z,2.13
2017-04-18T10:25:23.482Z,1.63
2017-04-18T10:26:23.543Z,2.20
2017-04-18T10:27:23.598Z,1.68
2017-04-18T10:28:23.675Z,1.78
2017-04-18T10:29:24.089Z,1.83
2017-04-18T10:30:24.134Z,1.90
2017-04-18T10:31:24.137Z,1.53
2017-04-18T10:32:24.221Z,1.60
2017-04-18T10:33:24.304Z,1.97
2017-04-18T10:34:24.375Z,1.95
2017-04-18T10:35:24.459Z,2.25
2017-04-18T10:36:24.561Z,2.00
2017-04-18T10:37:24.685Z,1.98
2017-04-18T10:38:24.825Z,1.90
2017-04-18T10:39:24.966Z,2.30
2017-04-18T10:40:25.090Z,1.52
2017-04-18T10:41:25.284Z,1.78
2017-04-18T10:42:25.352Z,1.52
2017-04-18T10:43:25.686Z,1.63
2017-04-18T10:44:26.734Z,1.75
2017-04-18T10:45:26.903Z,1.82
2017-04-18T10:46:27.027Z,1.98
2017-04-18T10:47:27.103Z,1.75
2017-04-18T10:48:27.205Z,2.42
2017-04-18T10:49:28.041Z,2.10
2017-04-18T10:50:28.062Z,1.88
2017-04-18T10:51:28.130Z,2.08
2017-04-18T10:52:28.201Z,2.42
2017-04-18T10:53:28.264Z,2.62
2017-04-18T10:54:28.316Z,2.62
2017-04-18T10:55:28.507Z,2.17
2017-04-18T10:56:30.253Z,2.32
2017-04-18T10:57:30.378Z,2.25
2017-04-18T10:58:31.163Z,2.27
2017-04-18T10:59:31.220Z,2.50
2017-04-18T11:00:31.283Z,1.77
2017-04-18T11:01:32.071Z,2.10
2017-04-18T11:02:32.167Z,2.93
2017-04-18T11:03:32.326Z,2.42
2017-04-18T11:04:32.902Z,2.03
2017-04-18T11:05:32.913Z,2.58
2017-04-18T11:06:32.924Z,2.55
2017-04-18T11:07:32.902Z,3.35
2017-04-18T11:08:33.052Z,2.38
2017-04-18T11:09:39.476Z,2.70
2017-04-18T11:10:39.608Z,2.37
2017-04-18T11:11:39.685Z,2.48
2017-04-18T11:12:39.810Z,2.53
2017-04-18T11:13:39.854Z,3.00
2017-04-18T11:14:40.690Z,2.98
2017-04-18T11:15:40.871Z,3.18
2017-04-18T11:16:40.980Z,2.20
2017-04-18T11:17:41.785Z,2.23
2017-04-18T11:18:41.789Z,2.32
2017-04-18T11:19:41.817Z,2.63
2017-04-18T11:20:41.845Z,2.40
2017-04-18T11:21:41.972Z,2.25
2017-04-18T11:22:42.293Z,2.95
2017-04-18T11:23:42.325Z,2.95
2017-04-18T11:24:42.435Z,2.58
2017-04-18T11:25:42.524Z,2.37
2017-04-18T11:26:42.554Z,2.13
2017-04-18T11:27:42.682Z,2.38
2017-04-18T11:28:42.851Z,1.93
2017-04-18T11:29:43.918Z,2.43
2017-04-18T11:30:44.000Z,2.17
2017-04-18T11:31:44.898Z,2.10
2017-04-18T11:32:44.884Z,1.75
2017-04-18T11:33:44.935Z,2.55
2017-04-18T11:34:44.967Z,2.80
2017-04-18T11:35:45.800Z,2.43
2017-04-18T11:36:45.866Z,1.97
2017-04-18T11:37:45.947Z,2.37
2017-04-18T11:38:46.149Z,2.13
2017-04-18T11:39:46.279Z,2.30
2017-04-18T11:40:46.370Z,2.38
2017-04-18T11:41:46.419Z,1.80
2017-04-18T11:42:47.298Z,2.35
2017-04-18T11:43:47.461Z,2.55
2017-04-18T11:44:47.494Z,2.20
2017-04-18T11:45:47.542Z,1.92
2017-04-18T11:46:47.566Z,1.70
2017-04-18T11:47:47.599Z,2.22
2017-04-18T11:48:47.660Z,2.37
2017-04-18T11:49:47.711Z,2.47
2017-04-18T11:50:47.974Z,1.90
2017-04-18T11:51:48.788Z,2.07
2017-04-18T11:52:48.862Z,2.40
2017-04-18T11:53:48.954Z,1.87
2017-04-18T11:54:49.750Z,2.37
2017-04-18T11:55:49.783Z,2.40
2017-04-18T11:56:49.820Z,2.20
2017-04-18T11:57:50.897Z,1.78
2017-04-18T11:58:50.942Z,1.82
2017-04-18T11:59:51.220Z,1.68
2017-04-18T12:00:51.187Z,1.87
2017-04-18T12:01:52.226Z,1.95
2017-04-18T12:02:52.319Z,2.03
2017-04-18T12:03:52.384Z,1.65
2017-04-18T12:04:52.434Z,2.13
2017-04-18T12:05:52.614Z,2.00
2017-04-18T12:06:53.794Z,2.05
2017-04-18T12:07:53.928Z,1.83
2017-04-18T12:08:54.503Z,2.47
2017-04-18T12:09:54.513Z,2.70
2017-04-18T12:10:54.585Z,2.35
2017-04-18T12:11:55.392Z,3.03
2017-04-18T12:12:55.509Z,2.67
2017-04-18T12:13:55.718Z,2.82
2017-04-18T12:14:55.724Z,1.97
2017-04-18T12:15:55.736Z,2.55
2017-04-18T12:16:55.818Z,2.28
2017-04-18T12:17:55.901Z,2.10
2017-04-18T12:18:55.978Z,1.85
2017-04-18T12:19:55.954Z,3.10
2017-04-18T12:20:56.087Z,2.60
2017-04-18T12:21:57.322Z,2.10
2017-04-18T12:22:57.381Z,2.28
2017-04-18T12:23:57.456Z,2.42
2017-04-18T12:24:57.547Z,2.22
2017-04-18T12:25:58.444Z,2.00
2017-04-18T12:26:58.546Z,2.70
2017-04-18T12:27:59.423Z,2.62
2017-04-18T12:28:59.511Z,2.60
2017-04-18T12:30:00.444Z,2.55
2017-04-18T12:31:00.591Z,2.22
2017-04-18T12:32:00.818Z,2.12
2017-04-18T12:33:00.934Z,1.92
2017-04-18T12:34:01.135Z,2.58
2017-04-18T12:35:01.610Z,2.83
2017-04-18T12:36:02.462Z,2.60
2017-04-18T12:37:03.251Z,2.33
2017-04-18T12:38:03.390Z,2.25
2017-04-18T12:39:03.625Z,2.07
2017-04-18T12:40:03.665Z,2.23
2017-04-18T12:41:03.739Z,2.10
2017-04-18T12:42:03.774Z,2.07
2017-04-18T12:43:03.834Z,2.03
2017-04-18T12:44:03.981Z,2.43
2017-04-18T12:45:04.056Z,1.98
2017-04-18T12:46:04.834Z,2.10
2017-04-18T12:47:05.473Z,1.90
2017-04-18T12:48:05.549Z,2.47
2017-04-18T12:49:06.201Z,2.02
2017-04-18T12:50:07.090Z,2.77
2017-04-18T12:51:07.178Z,1.75
2017-04-18T12:52:07.958Z,2.10
2017-04-18T12:53:08.758Z,1.70
2017-04-18T12:54:08.897Z,1.38
2017-04-18T12:55:08.945Z,1.73
2017-04-18T12:56:09.051Z,2.07
2017-04-18T12:57:09.203Z,1.75
2017-04-18T12:58:09.305Z,1.78
2017-04-18T12:59:09.504Z,1.88
2017-04-18T13:00:09.746Z,1.77
2017-04-18T13:01:09.976Z,1.85
2017-04-18T13:02:11.017Z,1.78
2017-04-18T13:03:11.284Z,1.70
2017-04-18T13:04:11.642Z,1.80
2017-04-18T13:05:11.817Z,1.67
2017-04-18T13:06:11.936Z,1.48
2017-04-18T13:07:11.985Z,2.00
2017-04-18T13:08:12.130Z,1.45
2017-04-18T13:09:15.519Z,1.90
2017-04-18T13:10:19.016Z,1.82
2017-04-18T13:11:19.045Z,1.85
2017-04-18T13:12:19.107Z,2.62
2017-04-18T13:13:19.165Z,2.13
2017-04-18T13:14:19.168Z,1.78
2017-04-18T13:15:20.018Z,2.48
2017-04-18T13:16:20.171Z,1.70
2017-04-18T13:17:20.225Z,1.70
2017-04-18T13:18:20.240Z,1.20
2017-04-18T13:19:20.761Z,2.05